Time;durP1;ratioP1;P1;durP2;ratioP2;P2;SDS_P1;SDS_P2;PMS_P1;PMS_P2;Temp;Humidity;BMP_temperature;BMP_pressure;BME280_temperature;BME280_humidity;BME280_pressure;Samples;Min_cycle;Max_cycle;Signal;HPM_P1;HPM_P2
2023/11/26 00:01:31;;;;;;;41.35;5.97;;;;;;;;;;4996879;28;20471;-42
2023/11/26 00:03:58;;;;;;;53.83;6.90;;;;;;;;;;4996347;28;20388;-44
2023/11/26 00:06:25;;;;;;;57.28;7.82;;;;;;;;;;5009481;28;20483;-43
2023/11/26 00:08:52;;;;;;;44.58;8.82;;;;;;;;;;5025810;28;20399;-43
2023/11/26 00:11:20;;;;;;;59.10;9.68;;;;;;;;;;5027845;28;20021;-42
2023/11/26 00:13:47;;;;;;;58.08;9.50;;;;;;;;;;5030453;28;20065;-43
2023/11/26 00:16:14;;;;;;;56.05;8.55;;;;;;;;;;5028503;28;20025;-42
2023/11/26 00:18:41;;;;;;;42.55;9.60;;;;;;;;;;5033318;28;20033;-42
2023/11/26 00:21:08;;;;;;;43.83;8.68;;;;;;;;;;5033866;28;20550;-42
2023/11/26 00:23:35;;;;;;;38.97;8.48;;;;;;;;;;5033839;28;20030;-42
2023/11/26 00:26:02;;;;;;;50.88;8.77;;;;;;;;;;5033776;28;20029;-43
2023/11/26 00:28:29;;;;;;;32.72;7.43;;;;;;;;;;5033452;28;20505;-42
2023/11/26 00:30:56;;;;;;;34.03;6.90;;;;;;;;;;5033624;28;20095;-42
2023/11/26 00:33:23;;;;;;;32.40;6.57;;;;;;;;;;5033634;28;20380;-42
2023/11/26 00:35:50;;;;;;;35.92;6.20;;;;;;;;;;5033584;28;20480;-42
2023/11/26 00:38:17;;;;;;;31.30;5.38;;;;;;;;;;5033613;28;20033;-42
2023/11/26 00:40:45;;;;;;;32.90;5.82;;;;;;;;;;5033424;28;20030;-43
2023/11/26 00:43:12;;;;;;;35.55;6.97;;;;;;;;;;5033290;28;20086;-42
2023/11/26 00:45:39;;;;;;;17.60;5.13;;;;;;;;;;5033402;28;20036;-42
2023/11/26 00:48:14;;;;;;;26.20;5.88;;;;;;;;;;5033374;28;20033;-42
2023/11/26 00:50:41;;;;;;;23.38;4.95;;;;;;;;;;5033360;28;20033;-42
2023/11/26 00:53:08;;;;;;;21.15;4.90;;;;;;;;;;5033305;28;20034;-42
2023/11/26 00:55:35;;;;;;;18.80;4.88;;;;;;;;;;5033108;28;20097;-43
2023/11/26 00:58:02;;;;;;;19.42;5.50;;;;;;;;;;5033259;28;20033;-42
2023/11/26 01:00:29;;;;;;;20.08;4.75;;;;;;;;;;5032884;28;20522;-41
2023/11/26 01:02:57;;;;;;;21.25;5.20;;;;;;;;;;5015252;28;20431;-42
2023/11/26 01:05:24;;;;;;;17.23;4.40;;;;;;;;;;5032873;28;20143;-41
2023/11/26 01:07:51;;;;;;;13.55;4.07;;;;;;;;;;5032894;28;20034;-42
2023/11/26 01:10:17;;;;;;;16.45;4.05;;;;;;;;;;5033012;28;20507;-42
2023/11/26 01:12:44;;;;;;;20.05;4.45;;;;;;;;;;5032901;28;20133;-43
2023/11/26 01:15:11;;;;;;;17.00;3.80;;;;;;;;;;5032729;28;20037;-42
2023/11/26 01:17:38;;;;;;;45.47;4.72;;;;;;;;;;5032574;28;20029;-42
2023/11/26 01:20:06;;;;;;;24.80;3.50;;;;;;;;;;5032760;28;20040;-42
2023/11/26 01:22:33;;;;;;;53.72;4.53;;;;;;;;;;5032714;28;20033;-44
2023/11/26 01:25:00;;;;;;;44.67;4.57;;;;;;;;;;5032726;28;20033;-42
2023/11/26 01:27:26;;;;;;;40.15;5.18;;;;;;;;;;5032535;28;20033;-42
2023/11/26 01:29:53;;;;;;;38.72;4.95;;;;;;;;;;5032605;28;20034;-41
2023/11/26 01:32:20;;;;;;;47.35;4.95;;;;;;;;;;5032477;28;20029;-42
2023/11/26 01:34:47;;;;;;;33.63;4.10;;;;;;;;;;5014692;28;20029;-41
2023/11/26 01:37:15;;;;;;;50.97;4.65;;;;;;;;;;5032313;28;20045;-42
2023/11/26 01:39:42;;;;;;;26.92;3.78;;;;;;;;;;5032292;28;20430;-42
2023/11/26 01:42:09;;;;;;;25.15;3.67;;;;;;;;;;5032465;28;20060;-41
2023/11/26 04:01:08;;;;;;;7.53;1.35;;;;;;;;;;5129861;27;20294;-42
2023/11/26 04:03:35;;;;;;;4.93;1.25;;;;;;;;;;5129962;28;20042;-42
2023/11/26 04:06:02;;;;;;;6.10;1.23;;;;;;;;;;5129533;28;20031;-42
2023/11/26 04:08:29;;;;;;;6.78;1.40;;;;;;;;;;5129793;28;20075;-42
2023/11/26 04:10:56;;;;;;;4.25;1.30;;;;;;;;;;5129809;28;20038;-42
2023/11/26 04:13:25;;;;;;;3.85;1.30;;;;;;;;;;5129744;28;20023;-42
2023/11/26 04:15:57;;;;;;;5.35;1.25;;;;;;;;;;5129574;28;20031;-42
2023/11/26 04:18:25;;;;;;;6.03;1.20;;;;;;;;;;5129783;28;20046;-42
2023/11/26 04:20:55;;;;;;;7.57;1.50;;;;;;;;;;5129421;28;20031;-42
2023/11/26 04:23:22;;;;;;;6.40;1.15;;;;;;;;;;5129551;28;20027;-42
2023/11/26 04:25:50;;;;;;;5.40;1.35;;;;;;;;;;5129543;28;20132;-42
2023/11/26 04:28:17;;;;;;;5.78;1.35;;;;;;;;;;5129502;28;20060;-42
2023/11/26 04:30:44;;;;;;;7.32;1.40;;;;;;;;;;5129178;28;20397;-42
2023/11/26 04:33:12;;;;;;;6.43;1.30;;;;;;;;;;5129240;28;20024;-42
2023/11/26 04:35:39;;;;;;;5.78;1.15;;;;;;;;;;5129271;28;20139;-42
2023/11/26 04:38:07;;;;;;;4.15;1.10;;;;;;;;;;5129262;28;20027;-42
2023/11/26 04:40:34;;;;;;;5.03;1.08;;;;;;;;;;5128975;28;20039;-42
2023/11/26 04:43:01;;;;;;;3.47;1.20;;;;;;;;;;5129177;28;20054;-42
2023/11/26 04:45:28;;;;;;;6.50;1.13;;;;;;;;;;5129091;28;20524;-42
2023/11/26 04:47:55;;;;;;;7.20;1.30;;;;;;;;;;5129104;28;20023;-42
2023/11/26 04:50:22;;;;;;;5.28;1.00;;;;;;;;;;5128938;28;20047;-42
2023/11/26 04:52:50;;;;;;;3.40;1.10;;;;;;;;;;5129000;28;20027;-42
2023/11/26 04:55:19;;;;;;;3.25;0.88;;;;;;;;;;5128874;28;20412;-42
2023/11/26 04:57:49;;;;;;;4.60;1.15;;;;;;;;;;5129081;28;20358;-42
2023/11/26 05:00:16;;;;;;;3.63;0.90;;;;;;;;;;5124980;28;20520;-42
2023/11/26 05:02:43;;;;;;;7.18;1.10;;;;;;;;;;5115161;28;20024;-42
2023/11/26 05:05:11;;;;;;;5.00;1.15;;;;;;;;;;5115029;28;20393;-42
2023/11/26 05:07:38;;;;;;;4.22;1.08;;;;;;;;;;5114945;28;20043;-42
2023/11/26 05:10:06;;;;;;;3.40;1.23;;;;;;;;;;5114897;28;20469;-42
2023/11/26 05:12:34;;;;;;;4.03;0.85;;;;;;;;;;5114851;28;20534;-42
2023/11/26 05:15:01;;;;;;;7.18;1.20;;;;;;;;;;5114991;28;20038;-42
2023/11/26 05:17:28;;;;;;;4.88;0.80;;;;;;;;;;5114883;28;20032;-42
2023/11/26 05:19:55;;;;;;;3.92;1.42;;;;;;;;;;5114417;28;20040;-42
2023/11/26 05:22:22;;;;;;;5.28;1.25;;;;;;;;;;5114734;28;20034;-42
2023/11/26 05:24:50;;;;;;;2.90;1.10;;;;;;;;;;5114608;28;20058;-42
2023/11/26 05:27:17;;;;;;;2.35;0.93;;;;;;;;;;5114660;28;20031;-42
2023/11/26 05:29:44;;;;;;;5.50;1.10;;;;;;;;;;5114515;28;20031;-42
2023/11/26 05:32:11;;;;;;;2.47;0.82;;;;;;;;;;5114465;28;20027;-42
2023/11/26 05:34:38;;;;;;;4.07;1.02;;;;;;;;;;5114491;28;20030;-42
2023/11/26 05:37:04;;;;;;;4.47;0.90;;;;;;;;;;5114473;28;20023;-42
2023/11/26 05:39:31;;;;;;;3.17;0.85;;;;;;;;;;5114247;28;20043;-42
2023/11/26 05:41:58;;;;;;;4.45;0.80;;;;;;;;;;5114394;28;20027;-42
2023/11/26 05:44:25;;;;;;;4.20;1.00;;;;;;;;;;5114379;28;20116;-42
2023/11/26 05:46:52;;;;;;;3.22;1.00;;;;;;;;;;5114287;28;20028;-42
2023/11/26 05:49:19;;;;;;;4.15;0.95;;;;;;;;;;5114088;28;20034;-42
2023/11/26 05:51:46;;;;;;;4.00;1.10;;;;;;;;;;5114192;28;20050;-42
2023/11/26 05:54:13;;;;;;;8.40;1.10;;;;;;;;;;5111289;28;20495;-40
2023/11/26 05:56:44;;;;;;;8.18;1.00;;;;;;;;;;5113978;28;20023;-38
2023/11/26 05:59:11;;;;;;;6.63;1.30;;;;;;;;;;5108922;28;20059;-44
2023/11/26 06:01:38;;;;;;;7.45;1.58;;;;;;;;;;5093573;28;20040;-45
2023/11/26 06:04:05;;;;;;;8.27;1.40;;;;;;;;;;5092827;28;20028;-47
2023/11/26 06:06:32;;;;;;;7.85;1.10;;;;;;;;;;5111771;28;20031;-46
2023/11/26 06:08:59;;;;;;;5.45;1.05;;;;;;;;;;5110246;28;20059;-45
2023/11/26 06:11:26;;;;;;;4.97;1.15;;;;;;;;;;5112902;28;20133;-45
2023/11/26 06:13:53;;;;;;;3.75;1.13;;;;;;;;;;5112155;28;20096;-45
2023/11/26 06:16:20;;;;;;;3.38;1.20;;;;;;;;;;5112746;28;20775;-45
2023/11/26 06:18:47;;;;;;;3.78;0.90;;;;;;;;;;5106257;28;20032;-45
2023/11/26 06:21:14;;;;;;;6.15;1.13;;;;;;;;;;5093006;28;20028;-47
2023/11/26 06:23:41;;;;;;;4.03;0.90;;;;;;;;;;5092882;28;20366;-46
2023/11/26 06:26:08;;;;;;;6.75;1.13;;;;;;;;;;5093094;28;20042;-48
2023/11/26 06:28:37;;;;;;;4.20;0.85;;;;;;;;;;5092895;28;20052;-45
2023/11/26 06:31:04;;;;;;;3.45;0.90;;;;;;;;;;5092802;28;20024;-45
2023/11/26 06:33:31;;;;;;;4.63;0.90;;;;;;;;;;5092895;28;20030;-45
2023/11/26 06:35:58;;;;;;;3.42;0.88;;;;;;;;;;5092819;28;20111;-45
2023/11/26 06:38:25;;;;;;;4.32;1.15;;;;;;;;;;5092613;28;20036;-45
2023/11/26 06:40:51;;;;;;;4.35;1.10;;;;;;;;;;5092784;28;20062;-46
2023/11/26 06:43:18;;;;;;;3.22;0.90;;;;;;;;;;5092477;28;20059;-45
2023/11/26 06:45:45;;;;;;;6.57;1.17;;;;;;;;;;5092636;28;20555;-45
2023/11/26 06:48:12;;;;;;;6.65;0.93;;;;;;;;;;5092594;28;20082;-47
2023/11/26 06:50:39;;;;;;;4.55;1.02;;;;;;;;;;5092545;28;20097;-45
2023/11/26 06:53:07;;;;;;;6.72;1.33;;;;;;;;;;5092444;28;20032;-46
2023/11/26 06:55:33;;;;;;;4.15;1.10;;;;;;;;;;5092505;28;20051;-46
2023/11/26 06:58:00;;;;;;;3.53;0.98;;;;;;;;;;5092473;28;20576;-45
2023/11/26 07:00:29;;;;;;;3.95;1.05;;;;;;;;;;5092072;28;20138;-45
2023/11/26 07:02:56;;;;;;;3.92;0.98;;;;;;;;;;5092369;28;20066;-46
2023/11/26 07:05:23;;;;;;;3.15;0.90;;;;;;;;;;5092197;28;20055;-45
2023/11/26 07:07:50;;;;;;;4.50;0.90;;;;;;;;;;5092271;28;20031;-46
2023/11/26 07:10:17;;;;;;;3.95;1.08;;;;;;;;;;5092204;28;20035;-45
2023/11/26 07:12:44;;;;;;;4.20;0.90;;;;;;;;;;5092287;28;20074;-45
2023/11/26 07:15:11;;;;;;;4.00;0.70;;;;;;;;;;5092252;28;20082;-45
2023/11/26 07:17:38;;;;;;;3.53;1.02;;;;;;;;;;5092018;28;20145;-46
2023/11/26 07:20:09;;;;;;;4.90;1.08;;;;;;;;;;5091960;28;20032;-45
2023/11/26 07:22:36;;;;;;;5.82;1.20;;;;;;;;;;5092015;28;20398;-46
2023/11/26 07:25:04;;;;;;;4.32;1.10;;;;;;;;;;5091895;28;20031;-45
2023/11/26 07:27:30;;;;;;;4.97;1.15;;;;;;;;;;5091856;28;20052;-46
2023/11/26 07:29:57;;;;;;;6.50;1.13;;;;;;;;;;5091916;28;20032;-45
2023/11/26 07:32:26;;;;;;;11.13;1.17;;;;;;;;;;5091956;28;20028;-45
2023/11/26 07:34:53;;;;;;;4.43;1.00;;;;;;;;;;5091941;28;20111;-45
2023/11/26 07:37:23;;;;;;;4.68;1.10;;;;;;;;;;5091682;28;20057;-44
2023/11/26 07:39:51;;;;;;;3.83;0.90;;;;;;;;;;5091677;28;20074;-45
2023/11/26 07:42:18;;;;;;;3.70;1.10;;;;;;;;;;5091742;28;20062;-45
2023/11/26 07:44:45;;;;;;;4.05;1.20;;;;;;;;;;5091743;28;20529;-46
2023/11/26 07:47:12;;;;;;;6.10;0.98;;;;;;;;;;5091850;28;20028;-45
2023/11/26 07:49:39;;;;;;;5.18;1.17;;;;;;;;;;5091769;28;20031;-45
2023/11/26 07:52:06;;;;;;;6.47;1.25;;;;;;;;;;5091814;28;20432;-45
2023/11/26 07:54:34;;;;;;;4.80;1.10;;;;;;;;;;5091643;28;20031;-45
2023/11/26 07:57:00;;;;;;;2.63;1.00;;;;;;;;;;5091764;28;20036;-45
2023/11/26 07:59:28;;;;;;;6.30;1.17;;;;;;;;;;5091322;28;20135;-45
2023/11/26 08:01:55;;;;;;;4.18;1.13;;;;;;;;;;5091675;28;20024;-45
2023/11/26 08:04:26;;;;;;;10.13;1.40;;;;;;;;;;5091632;28;20539;-45
2023/11/26 08:06:53;;;;;;;5.63;1.02;;;;;;;;;;5091763;28;20032;-45
2023/11/26 08:09:20;;;;;;;3.67;1.05;;;;;;;;;;5091308;28;20039;-45
2023/11/26 08:11:48;;;;;;;6.35;1.20;;;;;;;;;;5091634;28;20440;-46
2023/11/26 08:14:15;;;;;;;7.55;1.13;;;;;;;;;;5091420;28;20424;-45
2023/11/26 08:16:43;;;;;;;3.60;1.20;;;;;;;;;;5091360;28;20036;-45
2023/11/26 08:19:16;;;;;;;7.75;1.17;;;;;;;;;;5091290;28;20070;-45
2023/11/26 08:21:44;;;;;;;4.10;0.95;;;;;;;;;;5091493;28;20067;-45
2023/11/26 08:24:15;;;;;;;4.85;1.27;;;;;;;;;;5091382;28;20040;-45
2023/11/26 08:26:45;;;;;;;7.30;1.08;;;;;;;;;;5091525;28;20393;-45
2023/11/26 08:29:13;;;;;;;6.55;1.00;;;;;;;;;;5091234;28;20043;-45
2023/11/26 08:31:44;;;;;;;6.05;1.23;;;;;;;;;;5091328;28;20032;-45
2023/11/26 08:34:11;;;;;;;18.85;1.65;;;;;;;;;;5091398;28;20081;-45
2023/11/26 08:36:42;;;;;;;2.47;1.00;;;;;;;;;;5093419;28;20065;-46
2023/11/26 08:39:27;;;;;;;4.15;1.08;;;;;;;;;;5094938;28;20047;-45
2023/11/26 08:41:54;;;;;;;6.55;1.20;;;;;;;;;;5095159;28;20040;-45
2023/11/26 08:44:22;;;;;;;5.38;1.27;;;;;;;;;;5095043;28;20028;-46
2023/11/26 08:46:49;;;;;;;6.63;1.30;;;;;;;;;;5095011;28;20024;-45
2023/11/26 08:49:20;;;;;;;4.03;0.90;;;;;;;;;;5094922;28;20493;-45
2023/11/26 08:51:47;;;;;;;4.63;1.52;;;;;;;;;;5094664;28;20036;-45
2023/11/26 08:54:15;;;;;;;4.97;1.02;;;;;;;;;;5094938;28;20027;-45
2023/11/26 08:56:42;;;;;;;6.00;1.02;;;;;;;;;;5094893;28;20036;-45
2023/11/26 08:59:09;;;;;;;8.65;0.82;;;;;;;;;;5094381;28;20156;-46
2023/11/26 09:01:37;;;;;;;4.47;0.90;;;;;;;;;;5108548;28;20073;-45
2023/11/26 09:04:04;;;;;;;3.88;0.98;;;;;;;;;;5114987;28;20065;-45
2023/11/26 09:06:31;;;;;;;3.50;1.33;;;;;;;;;;5115053;28;20480;-45
2023/11/26 09:08:58;;;;;;;4.88;1.30;;;;;;;;;;5114903;28;20100;-46
2023/11/26 09:11:26;;;;;;;3.92;0.93;;;;;;;;;;5114995;28;20027;-45
2023/11/26 09:13:53;;;;;;;2.58;0.80;;;;;;;;;;5114837;28;20378;-45
2023/11/26 09:16:20;;;;;;;4.82;0.98;;;;;;;;;;5114899;28;20480;-45
2023/11/26 09:18:47;;;;;;;4.00;1.00;;;;;;;;;;5114616;28;20137;-46
2023/11/26 09:21:14;;;;;;;6.15;1.05;;;;;;;;;;5114819;28;20035;-45
2023/11/26 09:23:44;;;;;;;5.72;1.05;;;;;;;;;;5114783;28;20569;-45
2023/11/26 09:26:12;;;;;;;3.70;1.05;;;;;;;;;;5114753;28;20081;-45
2023/11/26 09:28:39;;;;;;;3.45;1.17;;;;;;;;;;5114588;28;20027;-45
2023/11/26 09:31:08;;;;;;;6.90;1.30;;;;;;;;;;5114720;28;20019;-45
2023/11/26 09:33:38;;;;;;;3.83;0.93;;;;;;;;;;5114546;28;20492;-46
2023/11/26 09:36:05;;;;;;;5.20;1.20;;;;;;;;;;5114572;28;20098;-45
2023/11/26 09:38:33;;;;;;;3.70;1.20;;;;;;;;;;5114370;28;20035;-45
2023/11/26 09:41:00;;;;;;;4.30;0.98;;;;;;;;;;5114409;28;20112;-45
2023/11/26 09:43:31;;;;;;;4.43;1.33;;;;;;;;;;5114468;28;20020;-45
2023/11/26 09:45:58;;;;;;;1.70;0.90;;;;;;;;;;5114389;28;20389;-46
2023/11/26 09:48:26;;;;;;;2.35;1.00;;;;;;;;;;5114179;28;20102;-45
2023/11/26 09:50:53;;;;;;;4.25;1.13;;;;;;;;;;5113129;28;20388;-45
2023/11/26 09:53:21;;;;;;;7.10;1.60;;;;;;;;;;5114174;28;20061;-45
2023/11/26 09:55:49;;;;;;;4.05;0.98;;;;;;;;;;5114114;28;20039;-45
2023/11/26 09:58:17;;;;;;;4.35;0.82;;;;;;;;;;5112688;28;20427;-46
2023/11/26 10:00:44;;;;;;;2.63;1.10;;;;;;;;;;5113750;28;20047;-44
2023/11/26 10:03:11;;;;;;;7.85;1.40;;;;;;;;;;5113988;28;20030;-44
2023/11/26 10:05:38;;;;;;;2.15;0.82;;;;;;;;;;5113945;28;20036;-44
2023/11/26 10:08:05;;;;;;;6.65;1.35;;;;;;;;;;5113900;28;20058;-44
2023/11/26 10:10:32;;;;;;;4.38;1.10;;;;;;;;;;5113955;28;20023;-46
2023/11/26 10:13:00;;;;;;;6.50;1.20;;;;;;;;;;5113837;28;20028;-44
2023/11/26 10:15:31;;;;;;;4.10;0.70;;;;;;;;;;5113789;28;20031;-44
2023/11/26 10:18:05;;;;;;;2.30;1.00;;;;;;;;;;5113701;28;20066;-44
2023/11/26 10:20:33;;;;;;;4.88;1.08;;;;;;;;;;5113529;28;20039;-44
2023/11/26 10:23:00;;;;;;;4.43;1.05;;;;;;;;;;5113703;28;20024;-44
2023/11/26 10:25:27;;;;;;;3.90;1.10;;;;;;;;;;5113620;28;20023;-45
2023/11/26 10:28:02;;;;;;;4.88;1.30;;;;;;;;;;5113425;28;20059;-44
2023/11/26 10:30:30;;;;;;;4.22;1.00;;;;;;;;;;5113429;28;20063;-44
2023/11/26 10:33:04;;;;;;;3.20;1.00;;;;;;;;;;5113484;28;20035;-44
2023/11/26 10:35:57;;;;;;;1.83;0.77;;;;;;;;;;5113393;28;20016;-44
2023/11/26 10:38:27;;;;;;;5.55;1.00;;;;;;;;;;5109833;28;20067;-45
2023/11/26 10:40:56;;;;;;;4.60;1.13;;;;;;;;;;5113132;28;20615;-45
2023/11/26 10:43:23;;;;;;;5.05;1.00;;;;;;;;;;5113237;28;20028;-45
2023/11/26 10:45:51;;;;;;;3.63;1.15;;;;;;;;;;5113220;28;20039;-45
2023/11/26 10:48:19;;;;;;;3.08;1.08;;;;;;;;;;5113049;28;20413;-46
2023/11/26 10:50:55;;;;;;;1.73;0.95;;;;;;;;;;5113133;28;20035;-44
2023/11/26 10:53:28;;;;;;;6.95;0.93;;;;;;;;;;5113051;28;20027;-44
2023/11/26 10:55:55;;;;;;;7.97;1.60;;;;;;;;;;5112991;28;20114;-44
2023/11/26 10:58:28;;;;;;;6.03;1.30;;;;;;;;;;5112273;28;20519;-45
2023/11/26 11:00:59;;;;;;;4.93;0.90;;;;;;;;;;5112676;28;20414;-44
2023/11/26 11:03:27;;;;;;;9.38;1.67;;;;;;;;;;5112785;28;20036;-44
2023/11/26 11:05:54;;;;;;;5.68;1.02;;;;;;;;;;5112726;28;20031;-44
2023/11/26 11:08:21;;;;;;;4.68;0.88;;;;;;;;;;5112654;28;20019;-44
2023/11/26 11:11:01;;;;;;;2.67;1.08;;;;;;;;;;5112790;28;20115;-43
2023/11/26 11:13:29;;;;;;;5.57;1.10;;;;;;;;;;5112715;28;20024;-44
2023/11/26 11:15:56;;;;;;;4.07;1.30;;;;;;;;;;5112704;28;20103;-44
2023/11/26 11:18:30;;;;;;;3.53;1.10;;;;;;;;;;5112590;28;20015;-44
2023/11/26 11:21:05;;;;;;;5.07;1.02;;;;;;;;;;5112545;28;20070;-44
2023/11/26 11:23:42;;;;;;;7.00;1.40;;;;;;;;;;5112480;28;20391;-44
2023/11/26 11:26:11;;;;;;;5.20;1.17;;;;;;;;;;5112435;28;20110;-44
2023/11/26 11:28:42;;;;;;;5.07;1.25;;;;;;;;;;5112330;28;20373;-44
2023/11/26 11:31:14;;;;;;;5.88;1.58;;;;;;;;;;5112459;28;20031;-44
2023/11/26 11:34:02;;;;;;;4.18;1.00;;;;;;;;;;5112393;28;20423;-44
2023/11/26 11:36:46;;;;;;;3.45;1.00;;;;;;;;;;5112407;28;20072;-44
2023/11/26 11:39:15;;;;;;;4.35;1.08;;;;;;;;;;5112056;28;20035;-44
2023/11/26 11:42:00;;;;;;;4.43;1.10;;;;;;;;;;5112366;28;20031;-44
2023/11/26 11:44:30;;;;;;;3.40;1.10;;;;;;;;;;5112481;28;20043;-44
2023/11/26 11:47:00;;;;;;;5.45;1.13;;;;;;;;;;5112223;28;20031;-44
2023/11/26 11:49:53;;;;;;;7.00;1.25;;;;;;;;;;5112168;28;20030;-44
2023/11/26 11:52:20;;;;;;;3.95;1.15;;;;;;;;;;5112266;28;20066;-44
2023/11/26 11:54:56;;;;;;;4.25;1.10;;;;;;;;;;5112221;28;20031;-44
2023/11/26 11:57:27;;;;;;;2.10;0.98;;;;;;;;;;5112052;28;20035;-44
2023/11/26 11:59:55;;;;;;;4.57;1.38;;;;;;;;;;5111804;28;20044;-44
2023/11/26 12:02:25;;;;;;;2.63;1.20;;;;;;;;;;5112053;28;20036;-44
2023/11/26 12:04:53;;;;;;;4.38;1.25;;;;;;;;;;5112136;28;20027;-44
2023/11/26 12:07:21;;;;;;;10.93;1.40;;;;;;;;;;5111984;28;20109;-44
2023/11/26 12:09:48;;;;;;;4.05;1.17;;;;;;;;;;5111941;28;20702;-44
2023/11/26 12:12:19;;;;;;;3.85;1.10;;;;;;;;;;5115664;28;20038;-44
2023/11/26 12:14:46;;;;;;;5.35;1.40;;;;;;;;;;5116240;28;20035;-44
2023/11/26 12:17:14;;;;;;;2.55;1.13;;;;;;;;;;5116145;28;20064;-44
2023/11/26 12:19:42;;;;;;;5.70;1.25;;;;;;;;;;5115832;28;20424;-44
2023/11/26 12:22:10;;;;;;;4.25;1.15;;;;;;;;;;5116064;28;20024;-44
2023/11/26 12:24:38;;;;;;;3.47;1.25;;;;;;;;;;5116003;28;20020;-44
2023/11/26 12:27:06;;;;;;;4.32;1.40;;;;;;;;;;5115919;28;20027;-44
2023/11/26 12:29:36;;;;;;;2.20;1.00;;;;;;;;;;5115826;28;20039;-44
2023/11/26 12:32:05;;;;;;;3.97;1.40;;;;;;;;;;5115813;28;20027;-45
2023/11/26 12:34:39;;;;;;;4.40;1.30;;;;;;;;;;5115691;28;20077;-44
2023/11/26 12:37:07;;;;;;;5.05;1.60;;;;;;;;;;5115750;28;20535;-44
2023/11/26 12:39:38;;;;;;;6.45;1.38;;;;;;;;;;5115469;28;20036;-44
2023/11/26 12:42:05;;;;;;;4.35;1.52;;;;;;;;;;5114362;28;20040;-44
2023/11/26 12:44:33;;;;;;;5.70;1.38;;;;;;;;;;5115599;28;20043;-44
2023/11/26 12:47:12;;;;;;;5.28;1.80;;;;;;;;;;5115531;28;20111;-44
2023/11/26 12:49:40;;;;;;;6.82;1.45;;;;;;;;;;5115313;28;20038;-44
2023/11/26 12:52:07;;;;;;;4.10;1.17;;;;;;;;;;5115410;28;20028;-44
2023/11/26 12:54:38;;;;;;;5.80;1.58;;;;;;;;;;5115286;28;20054;-45
2023/11/26 12:57:06;;;;;;;4.30;1.00;;;;;;;;;;5115131;28;20020;-44
2023/11/26 12:59:46;;;;;;;4.90;1.40;;;;;;;;;;5114730;28;20058;-44
2023/11/26 13:02:23;;;;;;;6.80;1.65;;;;;;;;;;5108485;28;20043;-44
2023/11/26 13:04:50;;;;;;;5.88;1.42;;;;;;;;;;5094944;28;20485;-44
2023/11/26 13:07:17;;;;;;;4.68;1.48;;;;;;;;;;5094663;28;20024;-45
2023/11/26 13:09:50;;;;;;;5.82;1.63;;;;;;;;;;5094625;28;20028;-45
2023/11/26 13:12:17;;;;;;;7.45;1.52;;;;;;;;;;5094508;28;20105;-45
2023/11/26 13:14:45;;;;;;;4.97;1.10;;;;;;;;;;5094650;28;20043;-44
2023/11/26 13:17:13;;;;;;;10.93;1.42;;;;;;;;;;5094389;28;20107;-43
2023/11/26 13:19:42;;;;;;;10.88;1.52;;;;;;;;;;5105945;28;20390;-44
2023/11/26 13:22:09;;;;;;;8.50;1.52;;;;;;;;;;5113564;28;20156;-43
2023/11/26 13:24:36;;;;;;;7.93;1.42;;;;;;;;;;5114283;28;20030;-43
2023/11/26 13:27:03;;;;;;;6.25;1.75;;;;;;;;;;5110576;28;20019;-43
2023/11/26 13:29:30;;;;;;;3.17;1.20;;;;;;;;;;5099479;28;20039;-44
2023/11/26 13:31:57;;;;;;;8.32;1.58;;;;;;;;;;5101818;28;20028;-43
2023/11/26 13:34:24;;;;;;;5.18;1.58;;;;;;;;;;5104270;28;20035;-43
2023/11/26 13:36:52;;;;;;;7.28;1.48;;;;;;;;;;5102791;28;20024;-43
2023/11/26 13:39:20;;;;;;;7.93;1.70;;;;;;;;;;5106498;28;20079;-43
2023/11/26 13:41:47;;;;;;;8.10;1.73;;;;;;;;;;5113114;28;20031;-44
2023/11/26 13:44:14;;;;;;;9.23;1.60;;;;;;;;;;5106353;28;20035;-43
2023/11/26 13:46:42;;;;;;;7.60;1.58;;;;;;;;;;5108706;28;20032;-43
2023/11/26 13:49:09;;;;;;;7.20;1.60;;;;;;;;;;5094824;28;20028;-43
2023/11/26 13:51:36;;;;;;;9.30;1.65;;;;;;;;;;5093732;28;20028;-45
2023/11/26 13:54:03;;;;;;;7.53;1.50;;;;;;;;;;5093832;28;20020;-43
2023/11/26 13:56:30;;;;;;;7.25;1.67;;;;;;;;;;5092364;28;20091;-43
2023/11/26 13:58:58;;;;;;;6.60;1.40;;;;;;;;;;5093464;28;20024;-43
2023/11/26 14:01:25;;;;;;;5.45;1.35;;;;;;;;;;5093612;28;20055;-43
2023/11/26 14:03:52;;;;;;;9.80;1.38;;;;;;;;;;5093647;28;20086;-43
2023/11/26 14:06:19;;;;;;;5.60;1.48;;;;;;;;;;5092298;28;20024;-43
2023/11/26 14:08:46;;;;;;;4.10;1.38;;;;;;;;;;5093489;28;20085;-45
2023/11/26 14:11:14;;;;;;;7.05;1.70;;;;;;;;;;5093551;28;20053;-43
2023/11/26 14:13:42;;;;;;;9.43;1.42;;;;;;;;;;5093390;28;20134;-43
2023/11/26 14:16:09;;;;;;;7.75;1.63;;;;;;;;;;5093433;28;20050;-43
2023/11/26 14:18:36;;;;;;;7.82;1.60;;;;;;;;;;5093298;28;20048;-42
2023/11/26 14:21:03;;;;;;;5.00;1.70;;;;;;;;;;5093409;28;20142;-42
2023/11/26 14:23:29;;;;;;;3.55;1.38;;;;;;;;;;5093334;28;20537;-42
2023/11/26 14:25:56;;;;;;;8.05;1.85;;;;;;;;;;5093233;28;20206;-42
2023/11/26 14:28:23;;;;;;;5.05;1.40;;;;;;;;;;5093124;28;20020;-43
2023/11/26 14:30:50;;;;;;;6.13;1.80;;;;;;;;;;5093213;28;20036;-43
2023/11/26 14:33:17;;;;;;;5.47;1.40;;;;;;;;;;5091023;28;20078;-42
2023/11/26 14:35:44;;;;;;;7.20;1.58;;;;;;;;;;5093077;28;20551;-42
2023/11/26 14:38:12;;;;;;;6.75;1.70;;;;;;;;;;5092913;28;20032;-43
2023/11/26 14:40:39;;;;;;;4.82;1.40;;;;;;;;;;5092812;28;20078;-43
2023/11/26 14:43:06;;;;;;;7.82;1.90;;;;;;;;;;5091574;28;20379;-44
2023/11/26 14:45:33;;;;;;;6.82;1.60;;;;;;;;;;5092922;28;20088;-42
2023/11/26 14:48:00;;;;;;;4.32;1.60;;;;;;;;;;5092699;28;20028;-43
2023/11/26 14:50:27;;;;;;;5.72;1.73;;;;;;;;;;5092806;28;20024;-43
2023/11/26 14:52:54;;;;;;;6.13;1.90;;;;;;;;;;5092816;28;20500;-44
2023/11/26 14:55:21;;;;;;;6.10;1.60;;;;;;;;;;5092661;28;20133;-44
2023/11/26 14:57:49;;;;;;;6.10;1.60;;;;;;;;;;5092613;28;20020;-43
2023/11/26 15:00:16;;;;;;;4.97;1.92;;;;;;;;;;5092387;28;20105;-42
2023/11/26 15:02:44;;;;;;;6.63;1.73;;;;;;;;;;5092654;28;20469;-43
2023/11/26 15:05:14;;;;;;;3.72;1.58;;;;;;;;;;5092429;28;20521;-42
2023/11/26 15:07:41;;;;;;;5.72;1.58;;;;;;;;;;5092403;28;20035;-43
2023/11/26 15:10:08;;;;;;;5.57;1.90;;;;;;;;;;5092481;28;20111;-43
2023/11/26 15:12:35;;;;;;;9.18;2.10;;;;;;;;;;5092314;28;20028;-43
2023/11/26 15:15:03;;;;;;;5.82;1.50;;;;;;;;;;5092416;28;20031;-43
2023/11/26 15:17:30;;;;;;;7.38;2.05;;;;;;;;;;5092098;28;20028;-43
2023/11/26 15:19:57;;;;;;;7.95;2.22;;;;;;;;;;5092188;28;20264;-43
2023/11/26 15:22:24;;;;;;;4.93;1.90;;;;;;;;;;5092247;28;20038;-42
2023/11/26 15:24:51;;;;;;;5.65;2.22;;;;;;;;;;5092239;28;20028;-43
2023/11/26 15:27:19;;;;;;;6.78;2.00;;;;;;;;;;5092170;28;20028;-43
2023/11/26 15:29:46;;;;;;;5.22;2.47;;;;;;;;;;5092005;28;20091;-42
2023/11/26 15:32:13;;;;;;;4.50;2.33;;;;;;;;;;5092112;28;20502;-43
2023/11/26 15:34:40;;;;;;;5.47;2.78;;;;;;;;;;5092083;28;20067;-43
2023/11/26 15:37:09;;;;;;;6.47;2.65;;;;;;;;;;5092101;28;20020;-43
2023/11/26 15:39:36;;;;;;;5.28;2.58;;;;;;;;;;5091786;28;20046;-43
2023/11/26 15:42:03;;;;;;;7.07;2.88;;;;;;;;;;5092003;28;20392;-43
2023/11/26 15:44:30;;;;;;;10.10;3.13;;;;;;;;;;5091699;28;20036;-43
2023/11/26 15:46:57;;;;;;;7.22;3.67;;;;;;;;;;5091917;28;20042;-43
2023/11/26 15:49:25;;;;;;;6.57;3.60;;;;;;;;;;5091826;28;20028;-43
2023/11/26 15:51:52;;;;;;;5.85;3.78;;;;;;;;;;5098441;28;20024;-43
2023/11/26 15:54:19;;;;;;;6.82;4.45;;;;;;;;;;5112224;28;20084;-43
2023/11/26 15:56:46;;;;;;;7.55;5.10;;;;;;;;;;5112048;28;20035;-44
2023/11/26 15:59:13;;;;;;;12.45;5.05;;;;;;;;;;5111596;28;20047;-43
2023/11/26 16:01:40;;;;;;;8.77;5.10;;;;;;;;;;5112093;28;20062;-43
2023/11/26 16:04:07;;;;;;;9.10;5.25;;;;;;;;;;5112146;28;20477;-43
2023/11/26 16:06:34;;;;;;;9.10;5.72;;;;;;;;;;5112088;28;20055;-43
2023/11/26 16:09:01;;;;;;;9.25;5.45;;;;;;;;;;5111852;28;20043;-43
2023/11/26 16:11:30;;;;;;;8.52;5.85;;;;;;;;;;5112022;28;20028;-43
2023/11/26 16:13:57;;;;;;;9.70;6.88;;;;;;;;;;5112264;28;20031;-44
2023/11/26 16:16:24;;;;;;;11.63;5.88;;;;;;;;;;5111986;28;20042;-43
2023/11/26 16:18:52;;;;;;;11.50;6.72;;;;;;;;;;5111794;28;20028;-44
2023/11/26 16:21:19;;;;;;;10.52;6.65;;;;;;;;;;5111813;28;20062;-43
2023/11/26 16:23:46;;;;;;;11.68;6.45;;;;;;;;;;5111909;28;20489;-43
2023/11/26 16:26:13;;;;;;;11.77;6.70;;;;;;;;;;5111896;28;20491;-45
2023/11/26 16:28:40;;;;;;;11.45;6.40;;;;;;;;;;5111848;28;20027;-43
2023/11/26 16:31:08;;;;;;;12.68;6.70;;;;;;;;;;5111863;28;20032;-44
2023/11/26 16:33:46;;;;;;;13.50;6.88;;;;;;;;;;5111768;28;20032;-44
2023/11/26 16:36:14;;;;;;;11.45;6.60;;;;;;;;;;5111748;28;20028;-43
2023/11/26 16:38:41;;;;;;;12.25;6.10;;;;;;;;;;5111753;28;20047;-43
2023/11/26 16:41:08;;;;;;;11.93;6.95;;;;;;;;;;5111798;28;20400;-43
2023/11/26 16:43:35;;;;;;;9.77;6.72;;;;;;;;;;5111686;28;20028;-43
2023/11/26 16:46:08;;;;;;;14.60;6.53;;;;;;;;;;5111716;28;20020;-43
2023/11/26 16:48:36;;;;;;;9.77;6.53;;;;;;;;;;5111550;28;20516;-43
2023/11/26 16:51:03;;;;;;;11.82;6.47;;;;;;;;;;5111771;28;20031;-43
2023/11/26 16:53:32;;;;;;;9.23;6.20;;;;;;;;;;5111682;28;20081;-43
2023/11/26 16:56:08;;;;;;;10.85;6.18;;;;;;;;;;5111615;28;20495;-44
2023/11/26 16:58:36;;;;;;;8.15;5.95;;;;;;;;;;5114026;28;20374;-43
2023/11/26 17:01:03;;;;;;;9.57;6.05;;;;;;;;;;5115096;28;20058;-43
2023/11/26 17:03:30;;;;;;;7.90;5.90;;;;;;;;;;5115247;28;20031;-43